Time;durP1;ratioP1;P1;durP2;ratioP2;P2;SDS_P1;SDS_P2;PMS_P1;PMS_P2;Temp;Humidity;BMP_temperature;BMP_pressure;BME280_temperature;BME280_humidity;BME280_pressure;Samples;Min_cycle;Max_cycle;Signal;HPM_P1;HPM_P2
2023/02/12 00:02:25;;;;;;;72.00;37.97;;;4.00;1.00;;;;;;5109929;28;20119;-81
2023/02/12 00:05:15;;;;;;;71.70;37.90;;;4.00;1.00;;;;;;5099313;28;20087;-79
2023/02/12 00:08:02;;;;;;;72.80;38.33;;;4.00;1.00;;;;;;5106950;28;20051;-80
2023/02/12 00:10:49;;;;;;;64.22;36.22;;;4.00;1.00;;;;;;5093332;28;20051;-80
2023/02/12 00:13:37;;;;;;;65.72;36.75;;;4.10;1.00;;;;;;5098703;28;20051;-79
2023/02/12 00:16:28;;;;;;;68.00;36.88;;;4.00;1.00;;;;;;5089834;28;20669;-79
2023/02/12 00:19:17;;;;;;;64.13;35.67;;;4.00;1.00;;;;;;5105227;28;20427;-79
2023/02/12 00:22:07;;;;;;;63.75;36.97;;;4.00;1.00;;;;;;5090760;28;20051;-80
2023/02/12 00:24:55;;;;;;;68.82;36.45;;;4.00;1.00;;;;;;5113952;28;20063;-79
2023/02/12 00:27:42;;;;;;;65.13;36.60;;;4.00;1.00;;;;;;5095153;28;20059;-81
2023/02/12 00:30:29;;;;;;;64.97;35.78;;;4.00;1.00;;;;;;5102059;28;20092;-80
2023/02/12 00:33:16;;;;;;;62.00;35.40;;;4.00;1.00;;;;;;5092073;28;20047;-81
2023/02/12 00:36:05;;;;;;;66.47;35.85;;;4.00;1.00;;;;;;5111252;28;20063;-80
2023/02/12 00:38:56;;;;;;;64.30;37.13;;;4.00;99.90;;;;;;5100610;28;20043;-78
2023/02/12 00:41:43;;;;;;;64.90;35.58;;;3.90;99.90;;;;;;5105697;28;20071;-81
2023/02/12 00:44:33;;;;;;;73.40;36.53;;;3.90;99.90;;;;;;5108001;28;20071;-80
2023/02/12 00:47:20;;;;;;;64.50;35.22;;;3.90;99.90;;;;;;5092290;28;20044;-81
2023/02/12 00:50:08;;;;;;;71.18;36.67;;;3.90;99.90;;;;;;5109945;28;20541;-80
2023/02/12 00:52:55;;;;;;;64.43;36.67;;;3.90;99.90;;;;;;5109097;28;20039;-81
2023/02/12 00:55:42;;;;;;;64.45;36.28;;;3.90;99.90;;;;;;5104845;28;20061;-81
2023/02/12 00:58:29;;;;;;;65.80;37.92;;;3.80;99.90;;;;;;5115030;28;20105;-79
2023/02/12 01:01:17;;;;;;;68.68;39.17;;;3.90;99.90;;;;;;5112818;27;20054;-79
2023/02/12 01:04:04;;;;;;;67.40;36.13;;;3.90;99.90;;;;;;5101671;28;20052;-80
2023/02/12 01:06:51;;;;;;;62.78;35.15;;;3.80;99.90;;;;;;5116457;28;20157;-80
2023/02/12 01:09:38;;;;;;;65.97;36.97;;;3.80;1.00;;;;;;5104106;28;20378;-81
2023/02/12 01:12:26;;;;;;;64.07;37.08;;;3.80;1.00;;;;;;5099819;28;20036;-81
2023/02/12 01:15:14;;;;;;;63.20;36.13;;;3.80;1.00;;;;;;5091635;28;20048;-80
2023/02/12 01:18:01;;;;;;;65.60;37.45;;;3.80;1.00;;;;;;5101719;28;20143;-81
2023/02/12 01:20:48;;;;;;;65.65;36.47;;;3.80;1.00;;;;;;5114656;28;20044;-80
2023/02/12 01:23:35;;;;;;;73.10;38.38;;;3.80;1.00;;;;;;5086424;28;20155;-78
2023/02/12 01:26:26;;;;;;;63.63;37.45;;;3.80;1.00;;;;;;5117584;28;20091;-79
2023/02/12 01:29:14;;;;;;;67.90;37.25;;;3.80;1.00;;;;;;5116557;28;20039;-81
2023/02/12 01:32:01;;;;;;;67.88;37.70;;;3.80;1.00;;;;;;5109130;28;20071;-80
2023/02/12 01:34:49;;;;;;;66.88;37.40;;;3.70;1.00;;;;;;5098163;28;20040;-78
2023/02/12 01:37:37;;;;;;;63.97;37.78;;;3.70;1.00;;;;;;5105406;28;20104;-81
2023/02/12 01:40:24;;;;;;;70.25;38.13;;;3.70;1.00;;;;;;5111596;28;20164;-81
2023/02/12 01:43:11;;;;;;;77.82;40.25;;;3.70;1.00;;;;;;5111797;27;20044;-81
2023/02/12 01:45:59;;;;;;;71.38;39.92;;;3.70;1.00;;;;;;5108385;28;20097;-80
2023/02/12 01:48:49;;;;;;;61.25;37.65;;;3.70;24.40;;;;;;5114833;28;20139;-79
2023/02/12 01:51:36;;;;;;;68.22;39.20;;;3.60;62.90;;;;;;5112929;28;20103;-80
2023/02/12 01:54:25;;;;;;;68.95;38.33;;;3.60;99.90;;;;;;5098679;28;20138;-81
2023/02/12 01:57:15;;;;;;;76.57;39.95;;;3.70;99.90;;;;;;5101640;28;20089;-81
2023/02/12 02:00:06;;;;;;;80.45;41.15;;;3.70;99.90;;;;;;5097671;28;20044;-80
2023/02/12 02:02:57;;;;;;;78.00;41.67;;;3.70;99.90;;;;;;5112569;28;20044;-81
2023/02/12 02:06:00;;;;;;;74.00;40.35;;;3.60;99.90;;;;;;5083031;28;20055;-81
2023/02/12 02:08:47;;;;;;;63.00;34.70;;;3.60;99.90;;;;;;5106918;28;20455;-81
2023/02/12 02:14:41;;;;;;;65.00;36.85;;;3.50;99.90;;;;;;5096748;28;20112;-83
2023/02/12 02:17:39;;;;;;;64.60;34.03;;;3.50;99.90;;;;;;5103081;28;20500;-79
2023/02/12 02:21:03;;;;;;;62.70;36.88;;;3.40;99.90;;;;;;5110487;28;20482;-79
2023/02/12 02:24:10;;;;;;;66.63;37.75;;;3.50;99.90;;;;;;5085481;28;20052;-79
2023/02/12 02:27:16;;;;;;;57.63;32.88;;;3.40;99.90;;;;;;5085864;28;20086;-79
2023/02/12 02:30:10;;;;;;;66.13;36.75;;;3.40;99.90;;;;;;5086638;28;20053;-79
2023/02/12 02:33:12;;;;;;;66.82;37.50;;;3.40;99.90;;;;;;5078787;28;20048;-78
2023/02/12 02:36:11;;;;;;;70.45;37.80;;;3.40;99.90;;;;;;5087308;28;20056;-79
2023/02/12 02:39:19;;;;;;;78.68;42.83;;;3.40;1.00;;;;;;5085185;28;20052;-79
2023/02/12 02:42:21;;;;;;;71.40;39.30;;;3.40;1.00;;;;;;5073160;28;20375;-79
2023/02/12 02:45:17;;;;;;;71.93;40.83;;;3.40;1.00;;;;;;5085831;28;20036;-80
2023/02/12 02:48:08;;;;;;;74.60;40.67;;;3.30;1.00;;;;;;5072524;28;20045;-80
2023/02/12 02:51:06;;;;;;;65.97;38.38;;;3.30;1.00;;;;;;5068369;28;20076;-79
2023/02/12 02:54:14;;;;;;;72.15;38.65;;;3.40;1.00;;;;;;5066348;28;20040;-79
2023/02/12 02:57:12;;;;;;;65.53;37.28;;;3.50;27.00;;;;;;5084286;28;20074;-79
2023/02/12 03:00:14;;;;;;;70.25;38.33;;;3.50;61.40;;;;;;5086959;28;20131;-79
2023/02/12 03:03:09;;;;;;;69.70;39.85;;;3.50;99.90;;;;;;5092010;28;20059;-80
2023/02/12 03:06:06;;;;;;;68.78;40.45;;;3.50;99.90;;;;;;5080962;28;20144;-79
2023/02/12 03:09:00;;;;;;;70.93;39.03;;;3.50;99.90;;;;;;5093815;28;20059;-80
2023/02/12 03:11:52;;;;;;;63.60;36.38;;;3.50;99.90;;;;;;5085040;28;20051;-80
2023/02/12 03:14:45;;;;;;;77.57;40.60;;;3.50;99.90;;;;;;5084297;28;20052;-79
2023/02/12 03:17:40;;;;;;;79.43;42.13;;;3.50;99.90;;;;;;5082903;28;20487;-80
2023/02/12 03:20:34;;;;;;;78.13;43.67;;;3.50;99.90;;;;;;5088410;28;20055;-80
2023/02/12 03:23:26;;;;;;;86.03;45.17;;;3.40;99.90;;;;;;5085064;28;20489;-80
2023/02/12 03:26:22;;;;;;;59.08;30.98;;;3.40;99.90;;;;;;5098288;28;20040;-79
2023/02/12 03:29:10;;;;;;;84.18;45.15;;;3.40;99.90;;;;;;5099692;28;20236;-81
2023/02/12 03:32:05;;;;;;;80.55;46.30;;;3.40;99.90;;;;;;5105854;28;20493;-79
2023/02/12 03:34:57;;;;;;;89.47;45.13;;;3.40;99.90;;;;;;5112781;28;20039;-79
2023/02/12 03:38:14;;;;;;;83.47;46.30;;;3.40;99.90;;;;;;5105197;28;20040;-79
2023/02/12 03:41:19;;;;;;;79.90;44.38;;;3.40;1.00;;;;;;5101734;28;20051;-80
2023/02/12 03:44:12;;;;;;;83.28;47.33;;;3.40;1.00;;;;;;5082863;28;20196;-81
2023/02/12 03:47:26;;;;;;;88.93;48.17;;;3.50;24.70;;;;;;5102190;28;20079;-81
2023/02/12 03:50:26;;;;;;;88.18;46.45;;;3.40;99.90;;;;;;5103690;28;20051;-79
2023/02/12 03:53:16;;;;;;;80.22;45.47;;;3.40;99.90;;;;;;5121580;27;20123;-81
2023/02/12 03:56:23;;;;;;;81.72;47.67;;;3.40;99.90;;;;;;5113375;28;20050;-78
2023/02/12 03:59:13;;;;;;;85.75;46.63;;;3.30;99.90;;;;;;5089993;28;20043;-79
2023/02/12 04:02:00;;;;;;;89.05;48.78;;;3.30;99.90;;;;;;5107984;28;20063;-80
2023/02/12 04:04:48;;;;;;;87.90;48.08;;;3.30;99.90;;;;;;5104743;28;20051;-80
2023/02/12 04:07:36;;;;;;;91.80;47.58;;;3.30;99.90;;;;;;5106963;28;20089;-80
2023/02/12 04:10:41;;;;;;;89.13;48.35;;;3.30;99.90;;;;;;5106609;28;20386;-79
2023/02/12 04:13:49;;;;;;;80.28;46.38;;;3.30;99.90;;;;;;5106868;28;20040;-81
2023/02/12 04:16:44;;;;;;;94.82;48.70;;;3.30;99.90;;;;;;5109469;28;20127;-81
2023/02/12 04:20:09;;;;;;;77.03;42.83;;;3.30;1.00;;;;;;5101489;28;20176;-80
2023/02/12 04:23:02;;;;;;;81.97;46.15;;;3.30;89.10;;;;;;5085832;28;20400;-81
2023/02/12 04:25:57;;;;;;;89.00;49.22;;;3.30;99.90;;;;;;5095454;28;20371;-82
2023/02/12 04:29:10;;;;;;;82.35;47.72;;;3.30;99.90;;;;;;5100796;28;20058;-81
2023/02/12 04:32:06;;;;;;;92.45;49.67;;;3.30;99.90;;;;;;5097546;28;20386;-81
2023/02/12 04:35:05;;;;;;;88.85;47.80;;;3.30;99.90;;;;;;5108206;28;20108;-80
2023/02/12 04:38:04;;;;;;;88.38;47.50;;;3.30;99.90;;;;;;5113565;28;20036;-80
2023/02/12 04:40:52;;;;;;;82.95;45.53;;;3.30;99.90;;;;;;5107204;28;20129;-79
2023/02/12 04:43:39;;;;;;;80.18;44.75;;;3.30;99.90;;;;;;5113762;28;20501;-81
2023/02/12 04:46:26;;;;;;;83.78;46.10;;;3.30;99.90;;;;;;5112795;28;20129;-83
2023/02/12 04:49:16;;;;;;;87.32;47.10;;;3.30;99.90;;;;;;5112988;28;20083;-80
2023/02/12 04:52:03;;;;;;;83.30;46.97;;;3.30;99.90;;;;;;5096280;28;20044;-79
2023/02/12 04:54:50;;;;;;;90.38;48.53;;;3.30;99.90;;;;;;5111102;28;20092;-80
2023/02/12 04:57:40;;;;;;;91.30;49.92;;;3.20;99.90;;;;;;5107052;28;20043;-80
2023/02/12 05:00:27;;;;;;;95.50;52.15;;;3.20;1.00;;;;;;5099392;28;20052;-79
2023/02/12 05:03:14;;;;;;;105.18;52.28;;;3.20;18.10;;;;;;5100187;28;20067;-80
2023/02/12 05:06:08;;;;;;;105.00;55.10;;;3.20;99.90;;;;;;5114263;28;20047;-79
2023/02/12 05:08:56;;;;;;;102.75;54.08;;;3.10;10.20;;;;;;5087128;28;20459;-80
2023/02/12 05:11:44;;;;;;;102.88;54.80;;;3.10;99.90;;;;;;5105787;28;20474;-81
2023/02/12 05:14:33;;;;;;;101.75;54.67;;;3.10;1.00;;;;;;5102233;28;20074;-79
2023/02/12 05:17:24;;;;;;;104.13;56.20;;;3.20;99.90;;;;;;5109008;28;20450;-81
2023/02/12 05:20:12;;;;;;;108.57;56.58;;;3.20;99.90;;;;;;5090292;28;20052;-80
2023/02/12 05:23:03;;;;;;;106.13;57.80;;;3.10;15.80;;;;;;5090824;28;20131;-80
2023/02/12 05:25:50;;;;;;;116.60;62.92;;;3.10;99.90;;;;;;5095652;28;20054;-80
2023/02/12 05:28:37;;;;;;;119.80;62.22;;;3.00;99.90;;;;;;5109415;28;20105;-81
2023/02/12 05:31:27;;;;;;;132.70;68.47;;;3.00;1.00;;;;;;5080430;28;20181;-80
2023/02/12 05:34:14;;;;;;;152.00;75.75;;;3.00;99.90;;;;;;5111283;28;20044;-81
2023/02/12 05:37:02;;;;;;;144.40;74.35;;;3.00;72.10;;;;;;5110454;28;20054;-80
2023/02/12 05:39:52;;;;;;;151.18;74.03;;;3.00;99.90;;;;;;5102516;28;20058;-79
2023/02/12 05:42:39;;;;;;;169.35;80.10;;;3.00;99.90;;;;;;5108936;28;20104;-79
2023/02/12 05:45:28;;;;;;;161.32;77.65;;;3.00;99.90;;;;;;5095149;28;20051;-80
2023/02/12 05:48:17;;;;;;;180.52;81.78;;;2.90;99.90;;;;;;5093691;28;20047;-80
2023/02/12 05:51:11;;;;;;;156.70;79.35;;;3.00;99.90;;;;;;5098677;28;20350;-80
2023/02/12 05:54:02;;;;;;;172.10;81.85;;;3.00;99.90;;;;;;5100299;28;20189;-80
2023/02/12 05:56:49;;;;;;;165.93;78.32;;;3.00;99.90;;;;;;5115455;28;20043;-81
2023/02/12 05:59:36;;;;;;;169.50;79.53;;;2.90;99.90;;;;;;5113722;28;20126;-80
2023/02/12 06:02:24;;;;;;;166.52;79.85;;;2.90;99.90;;;;;;5100199;28;20047;-81
2023/02/12 06:05:11;;;;;;;169.50;79.35;;;2.80;99.90;;;;;;5105168;28;20036;-80
2023/02/12 06:07:58;;;;;;;166.50;78.65;;;2.80;99.90;;;;;;5099497;28;20480;-80
2023/02/12 06:10:45;;;;;;;165.02;77.53;;;2.80;99.90;;;;;;5108505;28;20496;-79
2023/02/12 06:13:33;;;;;;;165.27;77.68;;;2.70;99.90;;;;;;5117873;28;20044;-79
2023/02/12 06:16:26;;;;;;;185.57;85.05;;;2.60;99.90;;;;;;5104705;28;20040;-79
2023/02/12 06:19:13;;;;;;;187.80;85.32;;;2.50;99.90;;;;;;5106069;28;20048;-81
2023/02/12 06:22:03;;;;;;;190.32;88.65;;;2.50;99.90;;;;;;5113263;28;20108;-80
2023/02/12 06:24:52;;;;;;;150.82;68.15;;;2.40;99.90;;;;;;5095155;28;20057;-81
2023/02/12 06:27:39;;;;;;;137.13;66.00;;;2.40;99.90;;;;;;5114144;28;20052;-82
2023/02/12 06:30:26;;;;;;;140.30;66.80;;;2.30;99.90;;;;;;5095028;28;20044;-80
2023/02/12 06:33:14;;;;;;;149.82;66.03;;;2.30;99.90;;;;;;5088473;28;20063;-81
2023/02/12 06:36:03;;;;;;;151.45;69.03;;;2.30;99.90;;;;;;5102629;28;20042;-78
2023/02/12 06:38:51;;;;;;;170.85;76.20;;;2.20;99.90;;;;;;5114930;28;20043;-79
2023/02/12 06:41:38;;;;;;;167.05;77.28;;;2.20;99.90;;;;;;5089587;28;20054;-80
2023/02/12 06:44:25;;;;;;;177.32;79.05;;;2.20;99.90;;;;;;5109796;28;20044;-81
2023/02/12 06:47:13;;;;;;;186.00;82.07;;;2.20;99.90;;;;;;5108696;28;20047;-79
2023/02/12 06:50:03;;;;;;;188.38;86.20;;;2.20;99.90;;;;;;5107142;28;20052;-80
2023/02/12 06:52:50;;;;;;;191.07;81.43;;;2.30;99.90;;;;;;5094352;28;20051;-80
2023/02/12 06:55:37;;;;;;;208.45;90.13;;;2.30;99.90;;;;;;5088537;28;20052;-82
2023/02/12 06:58:25;;;;;;;204.70;88.38;;;2.30;99.90;;;;;;5110484;28;20462;-79
2023/02/12 07:01:18;;;;;;;233.15;92.65;;;2.40;99.90;;;;;;5115924;28;20040;-80
2023/02/12 07:04:05;;;;;;;243.73;97.30;;;2.50;99.90;;;;;;5104499;28;20040;-80
2023/02/12 07:06:52;;;;;;;230.93;97.53;;;2.50;99.90;;;;;;5092634;28;20059;-80
2023/02/12 07:09:39;;;;;;;235.02;97.40;;;2.50;99.90;;;;;;5109759;27;20551;-81
2023/02/12 07:12:35;;;;;;;239.48;97.97;;;2.60;99.90;;;;;;5107247;28;20039;-86
2023/02/12 07:15:22;;;;;;;216.80;92.07;;;2.70;99.90;;;;;;5097114;28;20164;-87
2023/02/12 07:18:10;;;;;;;227.10;96.85;;;2.70;99.90;;;;;;5104844;28;20039;-88
2023/02/12 07:21:01;;;;;;;237.00;103.15;;;2.80;99.90;;;;;;5095149;28;20185;-84
2023/02/12 07:23:50;;;;;;;247.70;105.65;;;2.80;99.90;;;;;;5111695;28;20043;-83
2023/02/12 07:26:38;;;;;;;249.00;105.28;;;3.00;99.90;;;;;;5112247;28;20036;-80
2023/02/12 07:29:26;;;;;;;236.90;104.95;;;3.10;99.90;;;;;;5101996;28;20043;-83
2023/02/12 07:32:13;;;;;;;192.55;85.78;;;3.20;99.90;;;;;;5107295;28;20550;-80
2023/02/12 07:35:00;;;;;;;184.68;83.55;;;3.00;99.90;;;;;;5099992;28;20346;-80
2023/02/12 07:37:48;;;;;;;187.63;86.60;;;2.90;99.90;;;;;;5103875;27;20044;-81
2023/02/12 07:40:37;;;;;;;196.65;87.95;;;2.90;99.90;;;;;;5111668;28;20119;-80
2023/02/12 07:43:24;;;;;;;193.88;87.97;;;3.00;99.90;;;;;;5108299;28;20039;-78
2023/02/12 07:46:22;;;;;;;216.27;93.45;;;3.20;99.90;;;;;;5101524;28;20078;-80
2023/02/12 07:49:14;;;;;;;227.25;100.18;;;3.30;99.90;;;;;;5113975;28;20375;-82
2023/02/12 07:52:01;;;;;;;222.32;100.00;;;3.50;99.90;;;;;;5097411;28;20044;-77
2023/02/12 07:54:48;;;;;;;200.77;95.45;;;3.60;99.90;;;;;;5103816;28;20455;-80
2023/02/12 07:57:36;;;;;;;193.98;93.72;;;3.80;99.90;;;;;;5111810;28;20188;-80
2023/02/12 08:00:23;;;;;;;187.20;88.43;;;4.00;99.90;;;;;;5110187;28;20228;-80
2023/02/12 08:03:10;;;;;;;171.05;84.45;;;4.10;99.90;;;;;;5110230;28;20133;-82
2023/02/12 08:05:57;;;;;;;160.18;82.18;;;4.10;99.90;;;;;;5110510;28;20055;-79
2023/02/12 08:08:46;;;;;;;159.05;79.75;;;4.20;99.90;;;;;;5110510;28;20039;-80
2023/02/12 08:11:37;;;;;;;139.95;76.45;;;4.40;99.90;;;;;;5106998;28;20057;-79
2023/02/12 08:14:28;;;;;;;131.55;70.68;;;4.60;99.90;;;;;;5093804;28;20044;-80
2023/02/12 08:17:22;;;;;;;120.22;66.82;;;4.60;99.90;;;;;;5096243;28;20048;-79
2023/02/12 08:20:11;;;;;;;133.18;65.53;;;4.60;99.90;;;;;;5111095;28;20051;-78
2023/02/12 08:23:23;;;;;;;116.43;62.63;;;4.60;99.90;;;;;;5106877;28;20047;-81
2023/02/12 08:26:37;;;;;;;118.32;63.00;;;4.60;99.90;;;;;;5101997;28;20067;-79
2023/02/12 08:29:31;;;;;;;119.72;63.65;;;4.60;99.90;;;;;;5092547;28;20043;-82
2023/02/12 08:32:18;;;;;;;125.93;65.63;;;4.50;99.90;;;;;;5084878;28;20155;-80
2023/02/12 08:35:05;;;;;;;131.60;65.72;;;4.60;99.90;;;;;;5091811;28;20450;-79
2023/02/12 08:37:55;;;;;;;109.55;61.72;;;4.70;99.90;;;;;;5114223;28;20474;-79
2023/02/12 08:40:42;;;;;;;109.00;60.95;;;4.80;99.90;;;;;;5107795;28;20040;-80
2023/02/12 08:43:32;;;;;;;102.20;57.33;;;4.60;1.00;;;;;;5100343;28;20051;-81
2023/02/12 08:46:22;;;;;;;162.98;85.97;;;4.50;1.00;;;;;;5097341;28;20145;-81
2023/02/12 08:49:19;;;;;;;117.80;65.55;;;4.60;1.00;;;;;;5100200;28;20116;-78
2023/02/12 08:52:06;;;;;;;104.13;55.15;;;4.70;1.00;;;;;;5108838;28;20044;-78
2023/02/12 08:54:56;;;;;;;95.35;55.22;;;4.70;99.90;;;;;;5112134;28;20051;-80
2023/02/12 08:57:43;;;;;;;100.13;55.22;;;4.90;1.00;;;;;;5109429;28;20047;-80
2023/02/12 09:00:31;;;;;;;94.80;52.90;;;4.90;99.90;;;;;;5093799;28;20038;-79
2023/02/12 09:03:19;;;;;;;91.53;51.15;;;5.00;99.90;;;;;;5096086;28;20047;-79
2023/02/12 09:06:11;;;;;;;94.70;52.25;;;5.20;99.90;;;;;;5106636;28;20043;-79
2023/02/12 09:08:59;;;;;;;89.05;50.85;;;5.20;99.90;;;;;;5103526;28;20047;-80
2023/02/12 09:11:48;;;;;;;89.13;51.17;;;5.30;99.90;;;;;;5106480;28;20455;-80
2023/02/12 09:14:37;;;;;;;83.75;47.53;;;5.40;1.00;;;;;;5108471;28;20370;-79
2023/02/12 09:17:26;;;;;;;78.55;46.42;;;5.40;99.90;;;;;;5105445;27;20124;-78
2023/02/12 09:20:13;;;;;;;78.82;44.97;;;5.70;99.90;;;;;;5114224;28;20096;-81
2023/02/12 09:23:01;;;;;;;77.65;43.55;;;5.70;78.30;;;;;;5112135;28;20058;-81
2023/02/12 09:25:50;;;;;;;68.40;42.33;;;5.80;1.00;;;;;;5114782;28;20051;-80
2023/02/12 09:28:38;;;;;;;69.80;39.20;;;5.90;1.00;;;;;;5093908;28;20099;-80
2023/02/12 09:31:32;;;;;;;66.72;38.17;;;6.00;99.90;;;;;;5084781;28;20040;-80
2023/02/12 09:34:22;;;;;;;71.15;40.75;;;6.20;99.90;;;;;;5106894;28;20089;-79
2023/02/12 09:37:09;;;;;;;73.22;40.58;;;6.30;99.90;;;;;;5090403;28;20059;-80
2023/02/12 09:39:59;;;;;;;67.80;38.03;;;6.30;28.00;;;;;;5098824;28;20036;-80
2023/02/12 09:43:07;;;;;;;64.75;37.30;;;6.60;1.00;;;;;;5112767;28;20408;-80
2023/02/12 09:46:12;;;;;;;56.22;34.15;;;6.80;1.00;;;;;;5111500;28;20079;-79
2023/02/12 09:49:11;;;;;;;55.70;34.33;;;6.50;99.90;;;;;;5113269;28;20039;-80
2023/02/12 09:52:02;;;;;;;53.30;32.63;;;6.30;99.90;;;;;;5110062;27;20054;-79
2023/02/12 09:54:50;;;;;;;58.17;34.75;;;6.10;99.90;;;;;;5109153;28;20074;-80
2023/02/12 09:57:37;;;;;;;53.38;31.20;;;6.10;99.90;;;;;;5106635;28;20076;-80
2023/02/12 10:00:30;;;;;;;53.70;31.25;;;6.00;99.90;;;;;;5098476;28;20047;-79
2023/02/12 10:03:18;;;;;;;45.45;26.73;;;6.10;99.90;;;;;;5095496;28;20058;-80
2023/02/12 10:06:12;;;;;;;49.03;27.23;;;6.00;99.90;;;;;;5096228;28;20051;-80
2023/02/12 10:09:05;;;;;;;46.50;26.95;;;6.10;99.90;;;;;;5091120;28;20052;-80
2023/02/12 10:11:57;;;;;;;37.20;23.45;;;6.20;99.90;;;;;;5110742;28;20059;-80
2023/02/12 10:14:58;;;;;;;36.67;21.98;;;6.30;99.90;;;;;;5112519;28;20501;-80
2023/02/12 10:18:11;;;;;;;38.03;20.45;;;6.30;99.90;;;;;;5097089;28;20043;-81
2023/02/12 10:21:07;;;;;;;29.98;19.20;;;6.40;99.90;;;;;;5105657;28;20090;-82
2023/02/12 10:24:26;;;;;;;34.33;19.40;;;6.40;99.90;;;;;;5090880;28;21206;-83
2023/02/12 10:27:24;;;;;;;25.00;16.23;;;6.50;99.90;;;;;;5107264;28;20044;-83
2023/02/12 10:30:42;;;;;;;18.75;11.32;;;6.70;99.90;;;;;;5097954;28;20042;-82
2023/02/12 10:33:44;;;;;;;23.58;14.50;;;6.90;99.90;;;;;;5107260;28;20052;-83
2023/02/12 10:36:48;;;;;;;20.80;12.82;;;7.00;99.90;;;;;;5108570;28;20036;-82
2023/02/12 10:40:05;;;;;;;19.15;12.27;;;7.00;99.90;;;;;;5104816;28;20043;-82
2023/02/12 10:42:53;;;;;;;20.63;11.40;;;7.20;99.90;;;;;;5097977;28;20044;-82
2023/02/12 10:45:42;;;;;;;18.73;12.52;;;7.50;99.90;;;;;;5110183;28;20387;-84
2023/02/12 10:48:31;;;;;;;21.60;13.20;;;7.90;99.90;;;;;;5108659;28;20058;-81
2023/02/12 10:51:39;;;;;;;21.20;13.57;;;8.10;99.90;;;;;;5096808;28;20473;-82
2023/02/12 10:54:37;;;;;;;20.40;13.23;;;8.20;99.90;;;;;;5098363;28;20185;-82
2023/02/12 10:57:37;;;;;;;17.67;12.23;;;8.40;55.50;;;;;;5111111;28;20054;-82
2023/02/12 11:00:39;;;;;;;14.30;9.88;;;8.70;8.80;;;;;;5118283;28;20039;-81
2023/02/12 11:03:38;;;;;;;13.55;9.55;;;8.50;1.00;;;;;;5117860;28;20071;-82
2023/02/12 11:06:31;;;;;;;12.65;8.98;;;8.70;1.00;;;;;;5095966;28;20150;-82
2023/02/12 11:09:47;;;;;;;14.05;9.30;;;8.80;1.00;;;;;;5090021;28;20392;-82
2023/02/12 11:12:39;;;;;;;13.88;8.55;;;8.90;1.00;;;;;;5101717;27;20048;-81
2023/02/12 11:15:33;;;;;;;13.00;8.73;;;9.00;1.00;;;;;;5096778;28;20036;-81
2023/02/12 11:18:25;;;;;;;20.70;12.02;;;8.80;1.00;;;;;;5117702;28;20036;-81
2023/02/12 11:21:12;;;;;;;16.52;10.90;;;8.40;1.00;;;;;;5091391;28;20055;-81
2023/02/12 11:24:30;;;;;;;15.90;10.82;;;8.30;1.00;;;;;;5097358;28;20052;-81
2023/02/12 11:27:23;;;;;;;20.70;12.27;;;8.30;1.00;;;;;;5101039;28;20055;-81
2023/02/12 11:30:19;;;;;;;18.48;10.80;;;8.40;1.00;;;;;;5092703;28;20098;-82
2023/02/12 11:33:31;;;;;;;14.85;10.32;;;8.20;1.00;;;;;;5110422;28;20055;-81
2023/02/12 11:36:24;;;;;;;15.02;8.90;;;8.20;1.00;;;;;;5108225;28;20426;-82
2023/02/12 11:39:29;;;;;;;15.63;9.23;;;7.90;1.00;;;;;;5101766;28;20044;-81
2023/02/12 11:42:23;;;;;;;16.67;9.45;;;7.80;1.00;;;;;;5085508;28;20356;-81
2023/02/12 11:45:26;;;;;;;16.48;10.23;;;7.80;1.00;;;;;;5091019;28;20123;-81
2023/02/12 11:48:21;;;;;;;18.27;10.50;;;7.70;1.00;;;;;;5093996;28;20178;-81
2023/02/12 11:51:23;;;;;;;17.38;10.20;;;7.80;1.00;;;;;;5096319;28;20060;-82
2023/02/12 11:54:22;;;;;;;17.00;10.75;;;7.90;1.00;;;;;;5110278;28;20346;-82
2023/02/12 11:57:46;;;;;;;20.00;11.77;;;7.70;1.00;;;;;;5107332;28;20096;-81
2023/02/12 12:00:45;;;;;;;22.42;13.68;;;7.50;1.00;;;;;;5110597;28;20040;-82
2023/02/12 12:03:48;;;;;;;24.88;13.57;;;7.40;16.10;;;;;;5106584;28;20484;-82
2023/02/12 12:06:48;;;;;;;20.95;13.07;;;7.40;45.00;;;;;;5109401;28;20094;-83
2023/02/12 12:10:06;;;;;;;23.73;14.07;;;7.40;69.90;;;;;;5112847;28;20075;-83
2023/02/12 12:13:06;;;;;;;24.67;14.50;;;7.50;91.70;;;;;;5106670;28;20123;-82
2023/02/12 12:23:04;;;;;;;22.95;13.68;;;7.60;97.20;;;;;;5028293;28;20049;-82
2023/02/12 12:25:57;;;;;;;24.10;15.13;;;7.80;94.00;;;;;;5099286;28;20107;-84
2023/02/12 12:29:05;;;;;;;23.33;14.10;;;7.80;82.50;;;;;;5106070;28;20070;-82
2023/02/12 12:32:02;;;;;;;21.50;12.82;;;7.70;81.60;;;;;;5094739;28;20472;-82
2023/02/12 12:34:49;;;;;;;22.17;12.57;;;7.70;83.70;;;;;;5102119;28;20050;-82
2023/02/12 12:38:11;;;;;;;22.73;13.35;;;7.90;81.40;;;;;;5108100;28;20047;-82
2023/02/12 12:41:25;;;;;;;18.10;11.10;;;7.90;77.00;;;;;;5084369;28;20480;-81
2023/02/12 12:44:16;;;;;;;16.23;9.85;;;7.80;59.90;;;;;;5102112;28;20052;-83
2023/02/12 12:47:20;;;;;;;14.77;9.50;;;7.70;76.00;;;;;;5093899;28;20257;-84
2023/02/12 12:50:30;;;;;;;17.27;10.23;;;7.60;99.90;;;;;;5104374;28;20174;-83
2023/02/12 12:53:24;;;;;;;14.75;9.50;;;7.70;99.90;;;;;;5113239;28;20169;-84
2023/02/12 12:56:39;;;;;;;18.05;9.98;;;7.70;99.90;;;;;;5108089;28;20055;-84
2023/02/12 12:59:41;;;;;;;18.92;10.40;;;7.80;99.90;;;;;;5100675;28;20048;-80
2023/02/12 13:02:49;;;;;;;18.52;9.48;;;7.70;99.90;;;;;;5115582;28;20039;-84
2023/02/12 13:05:57;;;;;;;19.30;10.35;;;7.50;99.90;;;;;;5116112;28;20153;-84
2023/02/12 13:09:07;;;;;;;15.63;10.20;;;7.40;99.90;;;;;;5102592;28;20052;-84
2023/02/12 13:12:21;;;;;;;19.88;10.57;;;7.30;99.90;;;;;;5098465;28;20439;-83
2023/02/12 13:15:24;;;;;;;14.90;10.20;;;7.30;99.90;;;;;;5102334;28;20074;-83
2023/02/12 13:18:33;;;;;;;17.65;10.50;;;7.20;99.90;;;;;;5112531;28;20119;-82
2023/02/12 13:21:44;;;;;;;15.20;9.95;;;7.40;99.90;;;;;;5093088;28;20027;-82
2023/02/12 13:24:42;;;;;;;17.13;10.23;;;7.50;99.90;;;;;;5114908;28;20046;-81
2023/02/12 13:27:39;;;;;;;12.95;8.40;;;7.60;99.90;;;;;;5120206;27;20123;-82
2023/02/12 13:30:45;;;;;;;14.60;8.30;;;7.70;99.90;;;;;;5101846;28;20136;-83
2023/02/12 13:33:41;;;;;;;14.88;9.00;;;7.90;99.90;;;;;;5102104;27;20469;-82
2023/02/12 13:36:30;;;;;;;13.57;8.38;;;7.80;99.90;;;;;;5102754;28;20050;-82
2023/02/12 13:39:23;;;;;;;19.05;9.77;;;7.90;99.90;;;;;;5115592;28;20191;-82
2023/02/12 13:42:20;;;;;;;18.90;9.85;;;7.70;99.90;;;;;;5115740;28;20048;-82
2023/02/12 13:45:51;;;;;;;14.15;9.20;;;7.80;99.90;;;;;;5124259;27;20142;-82
2023/02/12 13:49:07;;;;;;;12.88;8.07;;;7.80;99.90;;;;;;5068015;28;20051;-83
2023/02/12 13:52:00;;;;;;;13.68;8.00;;;7.70;99.90;;;;;;5115340;28;20482;-84
2023/02/12 13:54:47;;;;;;;;;;;7.80;99.90;;;;;;5112471;27;20173;-80
2023/02/12 13:57:42;;;;;;;15.20;7.47;;;7.90;99.90;;;;;;5112842;27;19927;-81
2023/02/12 14:00:51;;;;;;;10.00;6.78;;;8.90;99.90;;;;;;5116012;28;20120;-83
2023/02/12 14:03:39;;;;;;;14.32;8.18;;;10.80;1.70;;;;;;5113832;28;20375;-83
2023/02/12 14:06:34;;;;;;;11.40;7.25;;;12.20;1.00;;;;;;5107794;28;20047;-84
2023/02/12 14:09:28;;;;;;;8.10;5.68;;;13.20;99.90;;;;;;5101408;28;20081;-83
2023/02/12 14:12:24;;;;;;;7.93;5.25;;;13.10;99.90;;;;;;5117583;28;20101;-81
2023/02/12 14:15:37;;;;;;;9.25;5.32;;;12.30;99.90;;;;;;5101921;28;20059;-86
2023/02/12 14:18:31;;;;;;;8.85;4.55;;;12.60;99.90;;;;;;5104290;28;20063;-81
2023/02/12 14:21:28;;;;;;;19.42;9.93;;;12.90;99.90;;;;;;5097747;28;20055;-83
2023/02/12 14:24:34;;;;;;;7.53;5.10;;;13.40;99.90;;;;;;5088254;28;20052;-84
2023/02/12 14:27:51;;;;;;;7.47;5.20;;;13.90;99.90;;;;;;5103425;28;20050;-84
2023/02/12 14:30:39;;;;;;;11.30;6.43;;;14.10;99.90;;;;;;5100318;28;20047;-83
2023/02/12 14:33:26;;;;;;;6.15;4.22;;;13.90;99.90;;;;;;5107121;28;20056;-85
2023/02/12 14:36:39;;;;;;;6.47;4.47;;;13.90;99.90;;;;;;5100095;28;20379;-84
2023/02/12 14:39:28;;;;;;;7.38;4.72;;;13.90;99.90;;;;;;5101152;28;20565;-81
2023/02/12 14:42:15;;;;;;;7.28;4.40;;;13.80;99.90;;;;;;5102933;28;20050;-83
2023/02/12 14:45:23;;;;;;;5.85;4.22;;;14.20;99.90;;;;;;5113543;28;20047;-84
2023/02/12 14:48:48;;;;;;;5.80;4.57;;;13.80;99.90;;;;;;5105708;28;20040;-83
2023/02/12 14:51:50;;;;;;;5.05;4.00;;;13.10;99.90;;;;;;5112485;28;20062;-82
2023/02/12 14:54:40;;;;;;;8.18;4.20;;;12.80;99.90;;;;;;5113074;28;20055;-82
2023/02/12 14:57:39;;;;;;;6.88;3.92;;;12.50;99.90;;;;;;5103596;28;20066;-83
2023/02/12 15:00:39;;;;;;;5.90;4.18;;;12.90;99.90;;;;;;5101165;28;20183;-83
2023/02/12 15:03:48;;;;;;;5.00;3.95;;;13.20;99.90;;;;;;5094240;28;20470;-84
2023/02/12 15:06:43;;;;;;;4.72;3.67;;;13.30;99.90;;;;;;5098985;28;20059;-83
2023/02/12 15:09:49;;;;;;;4.20;3.40;;;13.70;99.90;;;;;;5089875;28;20055;-83